sensor_id;sensor_type;location;lat;lon;timestamp;P1;durP1;ratioP1;P2;durP2;ratioP2
52982;SDS011;48698;45.736;13.926;2023-11-21T00:04:32;19.73;;;14.35;;
52982;SDS011;48698;45.736;13.926;2023-11-21T00:09:36;20.80;;;14.40;;
52982;SDS011;48698;45.736;13.926;2023-11-21T00:14:41;24.48;;;15.25;;
52982;SDS011;48698;45.736;13.926;2023-11-21T00:19:44;22.27;;;15.20;;
52982;SDS011;48698;45.736;13.926;2023-11-21T00:24:48;21.55;;;13.82;;
52982;SDS011;48698;45.736;13.926;2023-11-21T00:29:52;18.15;;;14.52;;
52982;SDS011;48698;45.736;13.926;2023-11-21T00:34:55;20.55;;;13.90;;
52982;SDS011;48698;45.736;13.926;2023-11-21T00:39:59;23.65;;;14.77;;
52982;SDS011;48698;45.736;13.926;2023-11-21T00:45:02;19.27;;;13.60;;
52982;SDS011;48698;45.736;13.926;2023-11-21T00:50:07;19.10;;;13.63;;
52982;SDS011;48698;45.736;13.926;2023-11-21T00:55:12;19.15;;;13.55;;
52982;SDS011;48698;45.736;13.926;2023-11-21T01:00:16;20.15;;;12.88;;
52982;SDS011;48698;45.736;13.926;2023-11-21T01:05:20;20.85;;;13.02;;
52982;SDS011;48698;45.736;13.926;2023-11-21T01:10:23;20.45;;;12.57;;
52982;SDS011;48698;45.736;13.926;2023-11-21T01:15:28;15.80;;;12.43;;
52982;SDS011;48698;45.736;13.926;2023-11-21T01:20:31;20.08;;;12.48;;
52982;SDS011;48698;45.736;13.926;2023-11-21T01:25:35;14.93;;;11.93;;
52982;SDS011;48698;45.736;13.926;2023-11-21T01:30:39;15.43;;;11.13;;
52982;SDS011;48698;45.736;13.926;2023-11-21T01:35:42;16.17;;;11.30;;
52982;SDS011;48698;45.736;13.926;2023-11-21T01:40:46;19.20;;;11.68;;
52982;SDS011;48698;45.736;13.926;2023-11-21T01:45:49;17.92;;;11.07;;
52982;SDS011;48698;45.736;13.926;2023-11-21T01:50:53;16.88;;;12.77;;
52982;SDS011;48698;45.736;13.926;2023-11-21T01:55:56;21.45;;;12.98;;
52982;SDS011;48698;45.736;13.926;2023-11-21T02:00:59;18.73;;;12.90;;
52982;SDS011;48698;45.736;13.926;2023-11-21T02:06:02;15.88;;;12.05;;
52982;SDS011;48698;45.736;13.926;2023-11-21T02:11:05;20.45;;;12.57;;
52982;SDS011;48698;45.736;13.926;2023-11-21T02:16:09;16.83;;;12.25;;
52982;SDS011;48698;45.736;13.926;2023-11-21T02:21:16;16.58;;;10.68;;
52982;SDS011;48698;45.736;13.926;2023-11-21T02:26:19;17.85;;;12.30;;
52982;SDS011;48698;45.736;13.926;2023-11-21T02:31:22;17.05;;;11.52;;
52982;SDS011;48698;45.736;13.926;2023-11-21T02:36:25;15.88;;;10.05;;
52982;SDS011;48698;45.736;13.926;2023-11-21T02:41:28;15.13;;;10.20;;
52982;SDS011;48698;45.736;13.926;2023-11-21T02:46:32;12.57;;;9.07;;
52982;SDS011;48698;45.736;13.926;2023-11-21T02:51:36;8.75;;;5.35;;
52982;SDS011;48698;45.736;13.926;2023-11-21T02:56:40;9.90;;;5.60;;
52982;SDS011;48698;45.736;13.926;2023-11-21T03:01:42;15.07;;;6.38;;
52982;SDS011;48698;45.736;13.926;2023-11-21T03:06:45;10.35;;;5.25;;
52982;SDS011;48698;45.736;13.926;2023-11-21T03:11:48;8.95;;;5.40;;
52982;SDS011;48698;45.736;13.926;2023-11-21T03:16:51;14.30;;;5.30;;
52982;SDS011;48698;45.736;13.926;2023-11-21T03:21:56;5.57;;;3.95;;
52982;SDS011;48698;45.736;13.926;2023-11-21T03:26:59;6.80;;;3.65;;
52982;SDS011;48698;45.736;13.926;2023-11-21T03:32:02;6.07;;;4.00;;
52982;SDS011;48698;45.736;13.926;2023-11-21T03:37:04;6.03;;;3.40;;
52982;SDS011;48698;45.736;13.926;2023-11-21T03:42:07;4.47;;;3.20;;
52982;SDS011;48698;45.736;13.926;2023-11-21T03:47:10;7.15;;;3.47;;
52982;SDS011;48698;45.736;13.926;2023-11-21T03:52:13;6.57;;;3.38;;
52982;SDS011;48698;45.736;13.926;2023-11-21T03:57:16;6.03;;;2.63;;
52982;SDS011;48698;45.736;13.926;2023-11-21T04:02:19;6.82;;;4.78;;
52982;SDS011;48698;45.736;13.926;2023-11-21T04:07:22;8.63;;;6.03;;
52982;SDS011;48698;45.736;13.926;2023-11-21T04:12:26;10.20;;;6.38;;
52982;SDS011;48698;45.736;13.926;2023-11-21T04:17:29;13.18;;;8.65;;
52982;SDS011;48698;45.736;13.926;2023-11-21T04:22:31;20.35;;;16.10;;
52982;SDS011;48698;45.736;13.926;2023-11-21T04:27:34;13.40;;;5.65;;
52982;SDS011;48698;45.736;13.926;2023-11-21T04:32:37;14.63;;;10.50;;
52982;SDS011;48698;45.736;13.926;2023-11-21T04:37:41;4.47;;;2.92;;
52982;SDS011;48698;45.736;13.926;2023-11-21T04:42:44;5.75;;;2.60;;
52982;SDS011;48698;45.736;13.926;2023-11-21T04:47:49;3.22;;;2.42;;
52982;SDS011;48698;45.736;13.926;2023-11-21T04:52:52;3.47;;;2.30;;
52982;SDS011;48698;45.736;13.926;2023-11-21T04:57:54;3.83;;;1.90;;
52982;SDS011;48698;45.736;13.926;2023-11-21T05:02:57;3.95;;;2.15;;
52982;SDS011;48698;45.736;13.926;2023-11-21T05:08:00;4.70;;;3.47;;
52982;SDS011;48698;45.736;13.926;2023-11-21T05:13:04;4.43;;;2.83;;
52982;SDS011;48698;45.736;13.926;2023-11-21T05:18:06;9.60;;;3.00;;
52982;SDS011;48698;45.736;13.926;2023-11-21T05:23:09;12.50;;;7.47;;
52982;SDS011;48698;45.736;13.926;2023-11-21T05:28:12;4.22;;;2.78;;
52982;SDS011;48698;45.736;13.926;2023-11-21T05:33:15;14.80;;;9.70;;
52982;SDS011;48698;45.736;13.926;2023-11-21T05:38:18;6.20;;;3.70;;
52982;SDS011;48698;45.736;13.926;2023-11-21T05:43:20;4.75;;;3.05;;
52982;SDS011;48698;45.736;13.926;2023-11-21T05:48:23;2.80;;;2.33;;
52982;SDS011;48698;45.736;13.926;2023-11-21T05:53:26;2.97;;;1.88;;
52982;SDS011;48698;45.736;13.926;2023-11-21T05:58:29;5.43;;;1.67;;
52982;SDS011;48698;45.736;13.926;2023-11-21T06:03:33;3.35;;;1.85;;
52982;SDS011;48698;45.736;13.926;2023-11-21T06:08:36;3.60;;;1.58;;
52982;SDS011;48698;45.736;13.926;2023-11-21T06:13:38;3.67;;;1.92;;
52982;SDS011;48698;45.736;13.926;2023-11-21T06:18:41;8.18;;;4.70;;
52982;SDS011;48698;45.736;13.926;2023-11-21T06:23:44;15.05;;;6.47;;
52982;SDS011;48698;45.736;13.926;2023-11-21T06:28:47;3.28;;;2.03;;
52982;SDS011;48698;45.736;13.926;2023-11-21T06:33:50;6.07;;;3.35;;
52982;SDS011;48698;45.736;13.926;2023-11-21T06:38:54;4.38;;;2.75;;
52982;SDS011;48698;45.736;13.926;2023-11-21T06:43:57;3.55;;;2.05;;
52982;SDS011;48698;45.736;13.926;2023-11-21T06:49:01;1.90;;;1.77;;
52982;SDS011;48698;45.736;13.926;2023-11-21T06:54:04;3.67;;;2.10;;
52982;SDS011;48698;45.736;13.926;2023-11-21T06:59:08;4.03;;;2.30;;
52982;SDS011;48698;45.736;13.926;2023-11-21T07:04:11;6.25;;;3.53;;
52982;SDS011;48698;45.736;13.926;2023-11-21T07:09:14;8.52;;;2.83;;
52982;SDS011;48698;45.736;13.926;2023-11-21T07:14:18;2.80;;;2.00;;
52982;SDS011;48698;45.736;13.926;2023-11-21T07:19:22;3.15;;;1.98;;
52982;SDS011;48698;45.736;13.926;2023-11-21T07:24:25;4.47;;;2.50;;
52982;SDS011;48698;45.736;13.926;2023-11-21T07:29:28;4.38;;;1.77;;
52982;SDS011;48698;45.736;13.926;2023-11-21T07:34:33;13.88;;;4.85;;
52982;SDS011;48698;45.736;13.926;2023-11-21T07:39:36;11.07;;;5.20;;
52982;SDS011;48698;45.736;13.926;2023-11-21T07:44:39;6.32;;;4.78;;
52982;SDS011;48698;45.736;13.926;2023-11-21T07:49:41;4.68;;;2.10;;
52982;SDS011;48698;45.736;13.926;2023-11-21T07:54:46;9.30;;;3.78;;
52982;SDS011;48698;45.736;13.926;2023-11-21T07:59:48;10.85;;;6.93;;
52982;SDS011;48698;45.736;13.926;2023-11-21T08:04:51;7.18;;;4.30;;
52982;SDS011;48698;45.736;13.926;2023-11-21T08:09:54;2.60;;;1.52;;
52982;SDS011;48698;45.736;13.926;2023-11-21T08:14:59;3.70;;;1.58;;
52982;SDS011;48698;45.736;13.926;2023-11-21T08:20:03;1.93;;;1.40;;
52982;SDS011;48698;45.736;13.926;2023-11-21T08:25:07;1.90;;;1.23;;
52982;SDS011;48698;45.736;13.926;2023-11-21T08:30:10;4.38;;;2.17;;
52982;SDS011;48698;45.736;13.926;2023-11-21T08:35:14;2.17;;;1.77;;
52982;SDS011;48698;45.736;13.926;2023-11-21T08:40:19;1.75;;;1.60;;
52982;SDS011;48698;45.736;13.926;2023-11-21T08:50:26;3.08;;;2.13;;
52982;SDS011;48698;45.736;13.926;2023-11-21T08:55:28;3.92;;;1.88;;
52982;SDS011;48698;45.736;13.926;2023-11-21T09:00:32;11.25;;;9.35;;
52982;SDS011;48698;45.736;13.926;2023-11-21T09:05:37;5.32;;;3.63;;
52982;SDS011;48698;45.736;13.926;2023-11-21T09:10:41;3.88;;;1.50;;
52982;SDS011;48698;45.736;13.926;2023-11-21T09:15:45;3.63;;;2.43;;
52982;SDS011;48698;45.736;13.926;2023-11-21T09:20:48;4.88;;;1.60;;
52982;SDS011;48698;45.736;13.926;2023-11-21T09:25:51;2.38;;;1.40;;
52982;SDS011;48698;45.736;13.926;2023-11-21T09:30:54;5.10;;;1.50;;
52982;SDS011;48698;45.736;13.926;2023-11-21T09:35:57;2.65;;;1.38;;
52982;SDS011;48698;45.736;13.926;2023-11-21T09:41:00;1.42;;;1.27;;
52982;SDS011;48698;45.736;13.926;2023-11-21T09:46:03;1.38;;;1.23;;
52982;SDS011;48698;45.736;13.926;2023-11-21T09:51:13;2.55;;;1.60;;
52982;SDS011;48698;45.736;13.926;2023-11-21T09:56:18;5.65;;;2.63;;
52982;SDS011;48698;45.736;13.926;2023-11-21T10:01:26;2.42;;;1.90;;
52982;SDS011;48698;45.736;13.926;2023-11-21T10:06:30;2.47;;;1.50;;
52982;SDS011;48698;45.736;13.926;2023-11-21T10:11:34;2.35;;;1.13;;
52982;SDS011;48698;45.736;13.926;2023-11-21T10:16:38;1.52;;;1.33;;
52982;SDS011;48698;45.736;13.926;2023-11-21T10:21:41;1.33;;;1.10;;
52982;SDS011;48698;45.736;13.926;2023-11-21T10:26:44;8.68;;;4.05;;
52982;SDS011;48698;45.736;13.926;2023-11-21T10:31:54;7.75;;;4.63;;
52982;SDS011;48698;45.736;13.926;2023-11-21T10:37:07;7.40;;;3.25;;
52982;SDS011;48698;45.736;13.926;2023-11-21T10:42:14;6.70;;;2.70;;
52982;SDS011;48698;45.736;13.926;2023-11-21T10:47:20;2.78;;;1.67;;
52982;SDS011;48698;45.736;13.926;2023-11-21T10:52:26;5.13;;;2.47;;
52982;SDS011;48698;45.736;13.926;2023-11-21T10:57:29;5.93;;;3.63;;
52982;SDS011;48698;45.736;13.926;2023-11-21T11:02:33;3.22;;;1.73;;
52982;SDS011;48698;45.736;13.926;2023-11-21T11:07:37;3.73;;;2.30;;
52982;SDS011;48698;45.736;13.926;2023-11-21T11:12:45;4.80;;;2.63;;
52982;SDS011;48698;45.736;13.926;2023-11-21T11:17:49;5.25;;;2.88;;
52982;SDS011;48698;45.736;13.926;2023-11-21T11:28:07;1.63;;;1.20;;
52982;SDS011;48698;45.736;13.926;2023-11-21T11:38:46;1.27;;;1.17;;
52982;SDS011;48698;45.736;13.926;2023-11-21T11:43:52;2.85;;;1.10;;
52982;SDS011;48698;45.736;13.926;2023-11-21T11:49:02;2.70;;;1.47;;
52982;SDS011;48698;45.736;13.926;2023-11-21T11:54:06;7.15;;;2.47;;
52982;SDS011;48698;45.736;13.926;2023-11-21T11:59:10;2.20;;;1.40;;
52982;SDS011;48698;45.736;13.926;2023-11-21T12:09:26;8.50;;;3.22;;
52982;SDS011;48698;45.736;13.926;2023-11-21T12:14:29;6.07;;;3.33;;
52982;SDS011;48698;45.736;13.926;2023-11-21T12:19:33;6.03;;;2.83;;
52982;SDS011;48698;45.736;13.926;2023-11-21T12:24:35;3.97;;;2.00;;
52982;SDS011;48698;45.736;13.926;2023-11-21T12:29:40;7.50;;;2.83;;
52982;SDS011;48698;45.736;13.926;2023-11-21T12:34:43;5.53;;;2.22;;
52982;SDS011;48698;45.736;13.926;2023-11-21T12:39:46;4.70;;;1.95;;
52982;SDS011;48698;45.736;13.926;2023-11-21T12:44:48;8.73;;;1.95;;
52982;SDS011;48698;45.736;13.926;2023-11-21T12:50:09;4.63;;;1.85;;
52982;SDS011;48698;45.736;13.926;2023-11-21T12:55:20;1.25;;;1.00;;
52982;SDS011;48698;45.736;13.926;2023-11-21T13:00:42;2.85;;;1.83;;
52982;SDS011;48698;45.736;13.926;2023-11-21T13:05:49;1.10;;;0.75;;
52982;SDS011;48698;45.736;13.926;2023-11-21T13:10:55;2.30;;;1.08;;
52982;SDS011;48698;45.736;13.926;2023-11-21T13:16:00;1.95;;;1.40;;
52982;SDS011;48698;45.736;13.926;2023-11-21T13:21:08;4.45;;;2.20;;
52982;SDS011;48698;45.736;13.926;2023-11-21T13:26:19;1.77;;;1.00;;
52982;SDS011;48698;45.736;13.926;2023-11-21T13:31:24;4.88;;;2.28;;
52982;SDS011;48698;45.736;13.926;2023-11-21T13:36:33;1.60;;;0.98;;
52982;SDS011;48698;45.736;13.926;2023-11-21T13:41:38;2.47;;;1.15;;
52982;SDS011;48698;45.736;13.926;2023-11-21T13:46:41;2.10;;;1.00;;
52982;SDS011;48698;45.736;13.926;2023-11-21T13:51:44;2.70;;;1.48;;
52982;SDS011;48698;45.736;13.926;2023-11-21T13:56:52;2.20;;;1.10;;
52982;SDS011;48698;45.736;13.926;2023-11-21T14:01:54;3.05;;;2.05;;
52982;SDS011;48698;45.736;13.926;2023-11-21T14:06:59;7.68;;;2.58;;
52982;SDS011;48698;45.736;13.926;2023-11-21T14:12:13;3.17;;;1.23;;
52982;SDS011;48698;45.736;13.926;2023-11-21T14:17:18;3.17;;;1.67;;
52982;SDS011;48698;45.736;13.926;2023-11-21T14:22:21;4.60;;;1.92;;
52982;SDS011;48698;45.736;13.926;2023-11-21T14:27:23;8.13;;;2.65;;
52982;SDS011;48698;45.736;13.926;2023-11-21T14:32:26;4.82;;;1.98;;
52982;SDS011;48698;45.736;13.926;2023-11-21T14:37:32;4.10;;;1.00;;
52982;SDS011;48698;45.736;13.926;2023-11-21T14:42:35;4.07;;;1.55;;
52982;SDS011;48698;45.736;13.926;2023-11-21T14:47:41;3.63;;;1.85;;
52982;SDS011;48698;45.736;13.926;2023-11-21T14:52:49;5.05;;;2.30;;
52982;SDS011;48698;45.736;13.926;2023-11-21T14:58:01;2.72;;;1.63;;
52982;SDS011;48698;45.736;13.926;2023-11-21T15:03:06;2.50;;;1.50;;
52982;SDS011;48698;45.736;13.926;2023-11-21T15:08:11;1.38;;;0.90;;
52982;SDS011;48698;45.736;13.926;2023-11-21T15:13:28;13.10;;;7.75;;
52982;SDS011;48698;45.736;13.926;2023-11-21T15:18:33;2.50;;;1.50;;
52982;SDS011;48698;45.736;13.926;2023-11-21T15:23:37;3.63;;;1.27;;
52982;SDS011;48698;45.736;13.926;2023-11-21T15:28:44;3.35;;;1.55;;
52982;SDS011;48698;45.736;13.926;2023-11-21T15:33:47;5.20;;;2.17;;
52982;SDS011;48698;45.736;13.926;2023-11-21T15:38:50;9.35;;;5.63;;
52982;SDS011;48698;45.736;13.926;2023-11-21T15:43:53;4.15;;;2.00;;
52982;SDS011;48698;45.736;13.926;2023-11-21T15:48:56;3.30;;;1.50;;
52982;SDS011;48698;45.736;13.926;2023-11-21T15:53:59;2.72;;;1.35;;
52982;SDS011;48698;45.736;13.926;2023-11-21T15:59:02;8.38;;;3.25;;
52982;SDS011;48698;45.736;13.926;2023-11-21T16:04:05;7.82;;;3.95;;
52982;SDS011;48698;45.736;13.926;2023-11-21T16:09:09;3.35;;;1.70;;
52982;SDS011;48698;45.736;13.926;2023-11-21T16:14:18;4.85;;;2.15;;
52982;SDS011;48698;45.736;13.926;2023-11-21T16:19:22;2.83;;;1.83;;
52982;SDS011;48698;45.736;13.926;2023-11-21T16:24:25;8.85;;;2.78;;
52982;SDS011;48698;45.736;13.926;2023-11-21T16:29:30;5.18;;;2.67;;
52982;SDS011;48698;45.736;13.926;2023-11-21T16:34:36;8.63;;;4.13;;
52982;SDS011;48698;45.736;13.926;2023-11-21T16:39:38;2.78;;;1.58;;
52982;SDS011;48698;45.736;13.926;2023-11-21T16:44:44;4.82;;;2.35;;
52982;SDS011;48698;45.736;13.926;2023-11-21T16:49:47;3.50;;;1.95;;
52982;SDS011;48698;45.736;13.926;2023-11-21T16:54:51;14.88;;;5.50;;
52982;SDS011;48698;45.736;13.926;2023-11-21T16:59:55;5.25;;;2.80;;
52982;SDS011;48698;45.736;13.926;2023-11-21T17:04:58;6.47;;;3.80;;
52982;SDS011;48698;45.736;13.926;2023-11-21T17:10:01;5.80;;;3.78;;
52982;SDS011;48698;45.736;13.926;2023-11-21T17:15:05;5.83;;;3.00;;
52982;SDS011;48698;45.736;13.926;2023-11-21T17:20:10;3.40;;;2.08;;
52982;SDS011;48698;45.736;13.926;2023-11-21T17:25:14;3.78;;;1.85;;
52982;SDS011;48698;45.736;13.926;2023-11-21T17:30:17;3.20;;;1.90;;
52982;SDS011;48698;45.736;13.926;2023-11-21T17:35:21;9.90;;;6.97;;
52982;SDS011;48698;45.736;13.926;2023-11-21T17:40:25;6.97;;;4.40;;
52982;SDS011;48698;45.736;13.926;2023-11-21T17:45:32;4.85;;;3.13;;
52982;SDS011;48698;45.736;13.926;2023-11-21T17:50:35;5.30;;;1.60;;
52982;SDS011;48698;45.736;13.926;2023-11-21T17:55:38;4.88;;;1.85;;
52982;SDS011;48698;45.736;13.926;2023-11-21T18:00:41;4.30;;;2.17;;
52982;SDS011;48698;45.736;13.926;2023-11-21T18:05:44;5.10;;;2.75;;
52982;SDS011;48698;45.736;13.926;2023-11-21T18:10:47;7.05;;;2.10;;
52982;SDS011;48698;45.736;13.926;2023-11-21T18:15:50;7.75;;;2.75;;
52982;SDS011;48698;45.736;13.926;2023-11-21T18:20:52;7.22;;;2.40;;
52982;SDS011;48698;45.736;13.926;2023-11-21T18:25:55;4.13;;;1.80;;
52982;SDS011;48698;45.736;13.926;2023-11-21T18:30:58;6.80;;;3.38;;
52982;SDS011;48698;45.736;13.926;2023-11-21T18:36:01;12.80;;;7.88;;
52982;SDS011;48698;45.736;13.926;2023-11-21T18:41:04;10.20;;;6.35;;
52982;SDS011;48698;45.736;13.926;2023-11-21T18:46:18;4.88;;;2.17;;
52982;SDS011;48698;45.736;13.926;2023-11-21T18:51:31;5.75;;;2.60;;
52982;SDS011;48698;45.736;13.926;2023-11-21T18:56:44;7.00;;;2.63;;
52982;SDS011;48698;45.736;13.926;2023-11-21T19:01:59;3.40;;;2.05;;
52982;SDS011;48698;45.736;13.926;2023-11-21T19:07:12;7.97;;;3.33;;
52982;SDS011;48698;45.736;13.926;2023-11-21T19:12:28;3.95;;;2.25;;
52982;SDS011;48698;45.736;13.926;2023-11-21T19:17:41;6.20;;;2.90;;
52982;SDS011;48698;45.736;13.926;2023-11-21T19:22:54;3.25;;;1.50;;
52982;SDS011;48698;45.736;13.926;2023-11-21T19:28:08;9.88;;;3.55;;
52982;SDS011;48698;45.736;13.926;2023-11-21T19:33:15;8.23;;;2.92;;
52982;SDS011;48698;45.736;13.926;2023-11-21T19:38:29;4.43;;;1.30;;
52982;SDS011;48698;45.736;13.926;2023-11-21T19:43:43;7.30;;;2.13;;
52982;SDS011;48698;45.736;13.926;2023-11-21T19:48:57;4.35;;;1.88;;
52982;SDS011;48698;45.736;13.926;2023-11-21T19:54:09;3.95;;;1.90;;
52982;SDS011;48698;45.736;13.926;2023-11-21T19:59:22;4.47;;;2.22;;
52982;SDS011;48698;45.736;13.926;2023-11-21T20:04:26;9.55;;;3.47;;
52982;SDS011;48698;45.736;13.926;2023-11-21T20:09:29;6.50;;;2.78;;
52982;SDS011;48698;45.736;13.926;2023-11-21T20:14:33;8.50;;;5.82;;
52982;SDS011;48698;45.736;13.926;2023-11-21T20:19:37;9.05;;;3.15;;
52982;SDS011;48698;45.736;13.926;2023-11-21T20:24:41;5.90;;;2.50;;
52982;SDS011;48698;45.736;13.926;2023-11-21T20:29:45;15.50;;;9.98;;
52982;SDS011;48698;45.736;13.926;2023-11-21T20:34:48;4.68;;;2.70;;
52982;SDS011;48698;45.736;13.926;2023-11-21T20:39:52;4.90;;;2.20;;
52982;SDS011;48698;45.736;13.926;2023-11-21T20:44:55;6.88;;;2.60;;
52982;SDS011;48698;45.736;13.926;2023-11-21T20:49:58;5.65;;;3.00;;
52982;SDS011;48698;45.736;13.926;2023-11-21T20:55:03;7.00;;;3.10;;
52982;SDS011;48698;45.736;13.926;2023-11-21T21:00:06;5.80;;;2.35;;
52982;SDS011;48698;45.736;13.926;2023-11-21T21:05:13;5.88;;;3.08;;
52982;SDS011;48698;45.736;13.926;2023-11-21T21:10:17;7.83;;;2.37;;
52982;SDS011;48698;45.736;13.926;2023-11-21T21:15:20;5.20;;;2.60;;
52982;SDS011;48698;45.736;13.926;2023-11-21T21:20:23;4.25;;;2.20;;
52982;SDS011;48698;45.736;13.926;2023-11-21T21:25:25;3.50;;;2.22;;
52982;SDS011;48698;45.736;13.926;2023-11-21T21:30:28;7.50;;;2.70;;
52982;SDS011;48698;45.736;13.926;2023-11-21T21:35:33;2.95;;;2.22;;
52982;SDS011;48698;45.736;13.926;2023-11-21T21:40:36;6.57;;;3.22;;
52982;SDS011;48698;45.736;13.926;2023-11-21T21:45:39;3.75;;;2.33;;
52982;SDS011;48698;45.736;13.926;2023-11-21T21:50:43;4.75;;;2.33;;
52982;SDS011;48698;45.736;13.926;2023-11-21T21:55:46;4.78;;;2.47;;
52982;SDS011;48698;45.736;13.926;2023-11-21T22:00:48;5.20;;;2.45;;
52982;SDS011;48698;45.736;13.926;2023-11-21T22:05:51;6.13;;;2.08;;
52982;SDS011;48698;45.736;13.926;2023-11-21T22:10:54;4.65;;;2.25;;
52982;SDS011;48698;45.736;13.926;2023-11-21T22:15:57;4.55;;;2.20;;
52982;SDS011;48698;45.736;13.926;2023-11-21T22:20:59;3.20;;;2.15;;
52982;SDS011;48698;45.736;13.926;2023-11-21T22:26:02;4.53;;;2.40;;
52982;SDS011;48698;45.736;13.926;2023-11-21T22:31:05;3.92;;;2.25;;
52982;SDS011;48698;45.736;13.926;2023-11-21T22:36:12;9.80;;;2.60;;
52982;SDS011;48698;45.736;13.926;2023-11-21T22:41:23;4.40;;;2.17;;
52982;SDS011;48698;45.736;13.926;2023-11-21T22:46:26;3.55;;;2.15;;
52982;SDS011;48698;45.736;13.926;2023-11-21T22:51:31;3.97;;;2.20;;
52982;SDS011;48698;45.736;13.926;2023-11-21T22:56:34;2.75;;;1.80;;
52982;SDS011;48698;45.736;13.926;2023-11-21T23:01:37;4.72;;;2.22;;
52982;SDS011;48698;45.736;13.926;2023-11-21T23:06:40;3.40;;;1.92;;
52982;SDS011;48698;45.736;13.926;2023-11-21T23:11:43;4.18;;;1.92;;
52982;SDS011;48698;45.736;13.926;2023-11-21T23:16:46;3.45;;;1.85;;
52982;SDS011;48698;45.736;13.926;2023-11-21T23:21:53;3.80;;;1.90;;
52982;SDS011;48698;45.736;13.926;2023-11-21T23:26:56;4.25;;;2.17;;
52982;SDS011;48698;45.736;13.926;2023-11-21T23:31:58;5.75;;;1.98;;
52982;SDS011;48698;45.736;13.926;2023-11-21T23:37:02;4.22;;;1.92;;
52982;SDS011;48698;45.736;13.926;2023-11-21T23:42:06;2.30;;;1.55;;
52982;SDS011;48698;45.736;13.926;2023-11-21T23:47:08;3.85;;;2.15;;
52982;SDS011;48698;45.736;13.926;2023-11-21T23:52:12;3.47;;;1.90;;
52982;SDS011;48698;45.736;13.926;2023-11-21T23:57:15;3.85;;;2.22;;
